Time;durP1;ratioP1;P1;durP2;ratioP2;P2;SDS_P1;SDS_P2;PMS_P1;PMS_P2;Temp;Humidity;BMP_temperature;BMP_pressure;BME280_temperature;BME280_humidity;BME280_pressure;Samples;Min_cycle;Max_cycle;Signal;HPM_P1;HPM_P2
2021/05/07 00:02:00;;;;;;;7.90;3.30;;;;;;;8.50;56.87;95715.17;1728733;82;21173;-80
2021/05/07 00:04:27;;;;;;;7.33;2.65;;;;;;;8.51;57.01;95708.82;1728718;82;21142;-80
2021/05/07 00:06:54;;;;;;;6.00;3.02;;;;;;;8.48;57.13;95704.91;1728681;82;21122;-81
2021/05/07 00:09:22;;;;;;;4.65;2.67;;;;;;;8.44;57.62;95707.84;1728774;82;21149;-80
2021/05/07 00:11:49;;;;;;;4.53;2.62;;;;;;;8.38;57.55;95694.47;1728731;82;21118;-80
2021/05/07 00:14:16;;;;;;;5.70;2.90;;;;;;;8.37;57.85;95683.66;1728777;82;21119;-81
2021/05/07 00:16:43;;;;;;;5.17;3.15;;;;;;;8.34;58.00;95676.32;1728708;82;21146;-81
2021/05/07 00:19:09;;;;;;;5.37;2.80;;;;;;;8.28;58.37;95674.23;1728846;82;21150;-81
2021/05/07 00:21:37;;;;;;;8.58;2.92;;;;;;;8.24;58.31;95670.61;1731726;82;21147;-80
2021/05/07 00:24:06;;;;;;;6.05;2.95;;;;;;;8.21;58.65;95663.80;1746209;81;21149;-80
2021/05/07 00:26:33;;;;;;;6.67;3.10;;;;;;;8.21;58.34;95663.27;1728672;82;21111;-80
2021/05/07 00:29:01;;;;;;;7.05;2.90;;;;;;;8.19;58.71;95661.45;1728745;82;21126;-80
2021/05/07 00:31:28;;;;;;;5.33;3.08;;;;;;;8.19;58.81;95661.98;1739523;82;21167;-81
2021/05/07 00:33:56;;;;;;;6.33;2.95;;;;;;;8.18;58.72;95663.06;1728633;82;21118;-80
2021/05/07 00:36:23;;;;;;;4.47;2.98;;;;;;;8.18;58.84;95661.73;1728673;82;21486;-81
2021/05/07 00:38:50;;;;;;;4.78;2.55;;;;;;;8.17;59.00;95659.64;1728760;82;21123;-81
2021/05/07 00:41:17;;;;;;;5.47;2.90;;;;;;;8.21;59.30;95661.16;1728795;82;21132;-80
2021/05/07 00:43:44;;;;;;;6.80;3.27;;;;;;;8.23;59.74;95655.84;1728767;82;21616;-80
2021/05/07 00:46:11;;;;;;;6.85;3.10;;;;;;;8.21;59.75;95655.34;1728682;82;21147;-80
2021/05/07 00:48:39;;;;;;;4.55;2.67;;;;;;;8.13;60.26;95651.23;1728654;82;21183;-81
2021/05/07 00:51:06;;;;;;;5.00;2.83;;;;;;;8.04;60.07;95644.51;1728694;82;21490;-81
2021/05/07 00:53:34;;;;;;;4.72;2.47;;;;;;;8.05;60.93;95644.75;1728660;82;21159;-80
2021/05/07 00:56:01;;;;;;;4.17;2.60;;;;;;;8.04;61.71;95641.87;1728654;82;21166;-80
2021/05/07 00:58:28;;;;;;;4.37;2.65;;;;;;;8.01;61.83;95645.84;1728770;82;21284;-80
2021/05/07 01:00:55;;;;;;;4.20;2.77;;;;;;;7.97;61.42;95651.44;1728697;82;21485;-80
2021/05/07 01:03:23;;;;;;;4.00;2.70;;;;;;;7.98;61.55;95645.62;1728634;82;21632;-80
2021/05/07 01:05:50;;;;;;;4.78;2.47;;;;;;;7.97;61.91;95638.25;1749802;82;21141;-80
2021/05/07 01:08:20;;;;;;;3.70;2.25;;;;;;;8.01;62.22;95635.81;1728712;82;21275;-80
2021/05/07 01:10:48;;;;;;;5.53;2.70;;;;;;;8.00;62.50;95621.84;1728707;82;21280;-80
2021/05/07 01:13:15;;;;;;;8.25;3.22;;;;;;;8.02;63.07;95614.45;1728724;82;21296;-81
2021/05/07 01:15:43;;;;;;;5.95;2.72;;;;;;;7.97;62.88;95612.39;1728692;82;21114;-80
2021/05/07 01:18:11;;;;;;;4.08;2.27;;;;;;;7.91;63.23;95613.01;1728680;82;21498;-81
2021/05/07 01:20:38;;;;;;;4.12;2.50;;;;;;;7.89;63.55;95610.41;1728789;82;21182;-80
2021/05/07 01:23:09;;;;;;;5.40;2.77;;;;;;;7.90;63.72;95608.80;1728666;82;21142;-81
2021/05/07 01:25:42;;;;;;;5.25;2.45;;;;;;;7.91;63.92;95604.31;1728753;82;21629;-81
2021/05/07 01:28:13;;;;;;;6.35;2.47;;;;;;;7.93;64.11;95605.59;1728773;82;21098;-80
2021/05/07 01:30:44;;;;;;;3.60;2.20;;;;;;;7.98;64.42;95616.59;1728750;82;21139;-80
2021/05/07 01:33:13;;;;;;;4.03;2.55;;;;;;;7.95;64.81;95617.17;1728859;82;21656;-81
2021/05/07 01:35:45;;;;;;;5.62;2.67;;;;;;;7.98;65.11;95608.68;1728763;82;21249;-80
2021/05/07 01:38:15;;;;;;;4.45;2.25;;;;;;;7.99;65.32;95599.16;1728684;82;21605;-80
2021/05/07 01:40:46;;;;;;;;;;;;;;;8.00;65.30;95592.80;1731237;82;21280;-80
2021/05/07 01:43:14;;;;;;;4.28;2.15;;;;;;;7.97;65.68;95578.08;1728829;82;20225;-81
2021/05/07 01:45:45;;;;;;;2.33;1.90;;;;;;;7.83;65.37;95577.23;1728753;82;21260;-80
2021/05/07 01:48:13;;;;;;;;;;;;;;;7.74;66.45;95591.08;1735554;82;21245;-80
2021/05/07 01:50:44;;;;;;;3.30;1.77;;;;;;;7.60;66.57;95583.62;1744879;81;20128;-80
2021/05/07 01:53:11;;;;;;;5.42;2.52;;;;;;;7.58;67.00;95592.86;1731177;82;21498;-80
2021/05/07 01:55:46;;;;;;;3.55;1.87;;;;;;;7.40;67.20;95586.50;1746459;82;21153;-80
2021/05/07 01:58:17;;;;;;;3.37;2.25;;;;;;;7.27;68.29;95596.41;1728665;82;21139;-80
2021/05/07 02:00:45;;;;;;;3.58;2.15;;;;;;;7.10;70.26;95596.33;1728796;82;21112;-80
2021/05/07 02:03:13;;;;;;;4.15;2.27;;;;;;;7.00;69.53;95593.80;1728572;82;21286;-80
2021/05/07 02:05:40;;;;;;;2.37;1.92;;;;;;;7.06;69.93;95594.02;1728698;82;21263;-80
2021/05/07 02:08:10;;;;;;;5.25;2.12;;;;;;;7.09;70.07;95583.44;1728690;82;21145;-80
2021/05/07 02:10:39;;;;;;;4.10;2.05;;;;;;;7.01;70.56;95579.55;1737221;82;21180;-81
2021/05/07 02:13:09;;;;;;;4.00;2.27;;;;;;;7.01;70.52;95571.65;1758702;81;21511;-80
2021/05/07 02:15:37;;;;;;;;;;;;;;;7.02;70.74;95569.27;1733342;81;21114;-80
2021/05/07 02:18:07;;;;;;;3.80;2.25;;;;;;;7.06;70.65;95572.15;1728659;82;20127;-80
2021/05/07 02:20:36;;;;;;;3.10;1.87;;;;;;;7.06;70.47;95558.44;1728816;82;21249;-80
2021/05/07 02:23:03;;;;;;;4.10;2.15;;;;;;;7.12;70.12;95564.42;1728651;82;21284;-80
2021/05/07 02:25:30;;;;;;;3.25;2.10;;;;;;;7.13;70.19;95554.91;1733479;81;21643;-81
2021/05/07 02:27:58;;;;;;;5.92;2.35;;;;;;;7.13;69.93;95552.28;1734198;81;21109;-81
2021/05/07 02:30:29;;;;;;;5.03;1.72;;;;;;;7.17;69.77;95556.98;1734853;81;21626;-81
2021/05/07 02:32:57;;;;;;;1.65;1.10;;;;;;;7.20;70.25;95541.41;1752811;81;21473;-80
2021/05/07 02:35:25;;;;;;;1.80;1.25;;;;;;;7.27;69.20;95535.78;1734292;81;21122;-80
2021/05/07 02:37:53;;;;;;;1.98;1.22;;;;;;;7.33;69.12;95533.34;1734175;81;21608;-81
2021/05/07 02:40:21;;;;;;;1.60;1.05;;;;;;;7.32;69.70;95533.06;1734301;81;21296;-80
2021/05/07 02:42:48;;;;;;;2.58;1.27;;;;;;;7.34;69.28;95532.27;1734231;81;21291;-80
2021/05/07 02:45:16;;;;;;;2.00;0.90;;;;;;;7.40;68.89;95525.32;1734240;81;21516;-80
2021/05/07 02:47:43;;;;;;;1.92;0.85;;;;;;;7.45;68.90;95538.95;1753869;81;21616;-80
2021/05/07 02:50:12;;;;;;;1.52;1.00;;;;;;;7.51;69.04;95540.48;1735551;81;21087;-80
2021/05/07 02:52:40;;;;;;;1.47;0.50;;;;;;;7.53;68.60;95550.20;1734196;81;21294;-80
2021/05/07 02:55:10;;;;;;;2.22;0.60;;;;;;;7.59;68.51;95535.09;1755581;81;21291;-80
2021/05/07 02:57:38;;;;;;;1.65;0.88;;;;;;;7.73;68.48;95543.31;1734340;81;21133;-80
2021/05/07 03:00:08;;;;;;;0.68;0.60;;;;;;;7.83;68.18;95545.03;1734213;81;21304;-80
2021/05/07 03:02:35;;;;;;;1.07;0.70;;;;;;;7.83;67.91;95525.78;1734438;81;21662;-80
2021/05/07 03:05:04;;;;;;;1.10;0.68;;;;;;;7.87;67.85;95526.77;1734199;81;21278;-80
2021/05/07 03:07:31;;;;;;;0.93;0.70;;;;;;;7.89;67.71;95520.16;1734124;81;21264;-80
2021/05/07 03:09:58;;;;;;;3.58;0.80;;;;;;;7.90;67.95;95515.66;1734141;81;21612;-80
2021/05/07 03:12:25;;;;;;;0.95;0.80;;;;;;;7.96;67.98;95525.84;1734174;81;21544;-80
2021/05/07 03:14:52;;;;;;;0.93;0.72;;;;;;;7.99;68.06;95513.92;1734129;81;21628;-80
2021/05/07 03:17:19;;;;;;;0.60;0.50;;;;;;;8.07;68.18;95515.91;1734158;81;21087;-80
2021/05/07 03:19:46;;;;;;;0.93;0.60;;;;;;;8.14;67.91;95504.97;1734320;81;21095;-80
2021/05/07 03:22:13;;;;;;;0.88;0.40;;;;;;;8.23;67.87;95516.45;1734092;81;21157;-80
2021/05/07 03:24:41;;;;;;;2.05;1.07;;;;;;;8.30;67.49;95529.53;1743201;81;21163;-80
2021/05/07 03:27:08;;;;;;;1.37;0.95;;;;;;;8.39;67.24;95511.18;1731126;81;21102;-80
2021/05/07 03:29:35;;;;;;;1.30;0.85;;;;;;;8.44;67.02;95511.62;1724784;82;21135;-81
2021/05/07 03:32:02;;;;;;;0.45;0.45;;;;;;;8.48;67.07;95513.95;1737088;82;21178;-80
2021/05/07 03:34:29;;;;;;;1.98;0.90;;;;;;;8.52;66.87;95511.74;1737176;82;21139;-80
2021/05/07 03:36:56;;;;;;;1.17;1.07;;;;;;;8.55;66.69;95513.02;1724804;82;21498;-80
2021/05/07 03:39:23;;;;;;;2.15;0.90;;;;;;;8.56;66.66;95506.11;1730647;82;21091;-80
2021/05/07 03:41:50;;;;;;;1.47;0.65;;;;;;;8.58;66.58;95498.67;1730638;82;21501;-80
2021/05/07 03:44:17;;;;;;;1.85;1.10;;;;;;;8.60;66.64;95501.05;1731192;82;21642;-80
2021/05/07 03:46:44;;;;;;;1.95;1.32;;;;;;;8.60;66.62;95502.38;1724710;82;21135;-80
2021/05/07 03:49:11;;;;;;;1.50;0.98;;;;;;;8.58;66.72;95487.33;1734580;82;21533;-81
2021/05/07 03:51:38;;;;;;;1.65;1.10;;;;;;;8.56;66.84;95481.55;1731927;82;21483;-80
2021/05/07 03:54:06;;;;;;;2.30;1.52;;;;;;;8.54;66.84;95492.95;1740809;82;21494;-80
2021/05/07 03:56:33;;;;;;;1.85;1.12;;;;;;;8.53;66.95;95504.60;1724804;82;21096;-80
2021/05/07 03:59:00;;;;;;;1.60;1.07;;;;;;;8.53;67.17;95505.38;1731591;82;21121;-80
2021/05/07 04:01:26;;;;;;;2.33;1.10;;;;;;;8.55;67.47;95511.69;1742837;82;21361;-80
2021/05/07 04:03:53;;;;;;;0.98;0.85;;;;;;;8.59;67.46;95503.45;1737085;82;21135;-81
2021/05/07 04:06:21;;;;;;;1.65;1.22;;;;;;;8.67;67.28;95496.15;1735647;82;21152;-80
2021/05/07 04:08:57;;;;;;;2.50;1.60;;;;;;;8.68;67.11;95510.92;1751002;82;21133;-80
2021/05/07 04:11:26;;;;;;;0.88;0.70;;;;;;;8.68;67.06;95481.86;1748594;82;21162;-80
2021/05/07 04:13:48;;;;;;;2.45;1.10;;;;;;;8.67;67.33;95468.95;1727211;82;21173;-81
2021/05/07 04:16:15;;;;;;;1.67;1.30;;;;;;;8.71;67.39;95484.45;1724757;82;21159;-80
2021/05/07 04:18:42;;;;;;;3.10;1.50;;;;;;;8.75;67.35;95481.48;1737294;82;21117;-80
2021/05/07 04:21:10;;;;;;;2.92;1.45;;;;;;;8.81;67.32;95483.72;1732097;82;21145;-81
2021/05/07 04:23:37;;;;;;;1.60;1.17;;;;;;;8.88;67.30;95510.56;1729790;82;21155;-80
2021/05/07 04:26:04;;;;;;;1.57;1.35;;;;;;;8.98;67.14;95517.48;1728064;82;21542;-81
2021/05/07 04:28:31;;;;;;;2.75;1.15;;;;;;;8.99;67.17;95522.23;1728729;82;21165;-80
2021/05/07 04:30:58;;;;;;;2.30;1.65;;;;;;;8.95;67.05;95527.87;1728703;82;21162;-80
2021/05/07 04:33:25;;;;;;;2.85;1.77;;;;;;;8.88;67.15;95529.59;1728575;82;21105;-80
2021/05/07 04:35:52;;;;;;;3.47;2.00;;;;;;;8.85;67.51;95537.55;1728767;82;21084;-80
2021/05/07 04:38:19;;;;;;;1.65;1.10;;;;;;;8.94;67.33;95548.23;1728701;82;21157;-81
2021/05/07 04:40:46;;;;;;;2.12;1.65;;;;;;;9.28;66.84;95535.92;1728570;82;21154;-80
2021/05/07 04:43:13;;;;;;;2.33;1.82;;;;;;;10.30;66.46;95526.55;1728538;82;21257;-80
2021/05/07 04:45:40;;;;;;;1.80;1.57;;;;;;;12.18;63.10;95517.29;1728713;82;21135;-81
2021/05/07 04:48:15;;;;;;;2.02;1.50;;;;;;;13.93;55.47;95501.55;1728606;82;21612;-81
2021/05/07 04:50:43;;;;;;;1.65;1.47;;;;;;;14.81;52.82;95489.19;1728686;82;21609;-81
2021/05/07 04:53:10;;;;;;;2.40;1.77;;;;;;;14.77;53.25;95506.17;1728676;82;21144;-81
2021/05/07 04:55:38;;;;;;;3.52;1.80;;;;;;;15.91;50.67;95505.14;1728594;82;21404;-81
2021/05/07 04:58:05;;;;;;;3.95;1.95;;;;;;;16.10;48.54;95493.04;1728759;82;21137;-81
2021/05/07 05:00:32;;;;;;;2.50;1.77;;;;;;;16.50;49.06;95509.02;1738312;82;21676;-81
2021/05/07 05:02:59;;;;;;;2.95;1.30;;;;;;;17.27;47.05;95520.69;1739534;82;21667;-82
2021/05/07 05:05:27;;;;;;;2.02;1.40;;;;;;;18.16;45.33;95506.02;1728772;82;21103;-82
2021/05/07 05:07:56;;;;;;;2.20;1.20;;;;;;;18.71;43.06;95509.34;1728639;82;21270;-82
2021/05/07 05:10:24;;;;;;;2.15;1.10;;;;;;;18.57;42.03;95501.00;1728634;82;21203;-82
2021/05/07 05:12:51;;;;;;;2.10;1.47;;;;;;;18.25;41.09;95497.73;1728569;82;21276;-81
2021/05/07 05:15:20;;;;;;;3.08;1.50;;;;;;;17.45;43.39;95517.85;1728674;82;21141;-81
2021/05/07 05:17:47;;;;;;;2.30;1.47;;;;;;;17.20;43.66;95516.73;1728563;82;21265;-81
2021/05/07 05:20:15;;;;;;;2.42;1.52;;;;;;;16.02;45.34;95510.77;1728549;82;21290;-81
2021/05/07 05:22:42;;;;;;;1.47;1.02;;;;;;;15.27;46.64;95513.11;1739002;82;21104;-82
2021/05/07 05:25:10;;;;;;;2.50;1.50;;;;;;;15.18;47.86;95505.20;1760707;81;21155;-81
2021/05/07 05:27:37;;;;;;;2.65;1.30;;;;;;;15.65;47.00;95510.10;1734810;81;21204;-82
2021/05/07 05:30:08;;;;;;;2.62;1.62;;;;;;;16.55;45.41;95530.95;1734030;81;21481;-82
2021/05/07 05:32:36;;;;;;;2.52;1.40;;;;;;;15.94;46.21;95514.38;1734061;81;21140;-82
2021/05/07 05:35:07;;;;;;;2.60;1.35;;;;;;;14.88;47.89;95519.86;1734040;81;21103;-81
2021/05/07 05:37:35;;;;;;;3.12;1.85;;;;;;;14.62;48.64;95515.59;1734090;81;21083;-81
2021/05/07 05:40:02;;;;;;;1.65;1.12;;;;;;;14.22;50.02;95531.34;1733967;81;21126;-81
2021/05/07 05:42:30;;;;;;;3.05;1.25;;;;;;;13.98;50.69;95526.68;1734075;81;21142;-82
2021/05/07 05:44:57;;;;;;;1.37;1.20;;;;;;;14.69;49.97;95515.84;1740296;81;21107;-81
2021/05/07 05:47:24;;;;;;;1.75;1.10;;;;;;;15.19;48.00;95492.07;1748619;81;21170;-81
2021/05/07 05:49:51;;;;;;;1.20;0.90;;;;;;;14.91;48.24;95489.84;1734065;81;21106;-81
2021/05/07 05:52:18;;;;;;;2.37;1.20;;;;;;;14.72;49.10;95523.18;1734062;81;21161;-81
2021/05/07 05:54:45;;;;;;;2.08;1.40;;;;;;;14.40;50.10;95514.08;1734023;81;21492;-82
2021/05/07 05:57:11;;;;;;;1.70;1.30;;;;;;;14.76;49.23;95504.61;1734070;81;21099;-82
2021/05/07 05:59:38;;;;;;;1.35;1.25;;;;;;;15.02;48.47;95515.77;1734203;81;21111;-82
2021/05/07 06:02:06;;;;;;;1.70;1.10;;;;;;;15.27;47.72;95465.05;1733969;81;21172;-82
2021/05/07 06:04:34;;;;;;;1.90;1.22;;;;;;;14.66;49.24;95493.84;1734193;81;21125;-81
2021/05/07 06:07:02;;;;;;;1.27;0.90;;;;;;;13.63;51.70;95510.16;1734117;81;21281;-81
2021/05/07 06:09:29;;;;;;;1.55;1.00;;;;;;;12.84;53.45;95523.62;1734109;81;21267;-81
2021/05/07 06:11:56;;;;;;;2.45;1.20;;;;;;;12.17;54.76;95509.09;1734153;81;21283;-81
2021/05/07 06:14:23;;;;;;;3.75;1.27;;;;;;;11.81;56.68;95528.54;1746970;81;21277;-82
2021/05/07 06:16:50;;;;;;;1.98;1.05;;;;;;;11.67;56.75;95539.28;1762309;81;21526;-82
2021/05/07 06:19:17;;;;;;;1.40;0.93;;;;;;;11.58;57.74;95535.84;1734223;81;21485;-82
2021/05/07 06:21:44;;;;;;;2.83;1.42;;;;;;;11.44;58.10;95536.52;1734213;81;21153;-81
2021/05/07 06:24:11;;;;;;;1.85;1.22;;;;;;;11.24;58.24;95537.31;1734121;81;21115;-81
2021/05/07 06:26:39;;;;;;;3.30;1.10;;;;;;;11.30;58.67;95546.72;1734782;81;21142;-81
2021/05/07 06:29:06;;;;;;;2.50;1.07;;;;;;;11.32;58.56;95535.02;1734963;81;21115;-81
2021/05/07 06:31:33;;;;;;;3.10;1.00;;;;;;;11.14;59.56;95541.59;1734935;81;21142;-81
2021/05/07 06:34:00;;;;;;;2.10;1.20;;;;;;;10.99;59.70;95522.91;1723275;83;21132;-81
2021/05/07 06:36:29;;;;;;;1.32;1.00;;;;;;;11.00;60.17;95536.95;1710242;83;21521;-81
2021/05/07 06:38:56;;;;;;;1.65;1.00;;;;;;;11.07;60.30;95530.64;1693204;83;21140;-81
2021/05/07 06:41:23;;;;;;;1.35;0.98;;;;;;;11.08;60.04;95528.22;1727395;82;21174;-82
2021/05/07 06:43:50;;;;;;;1.02;0.93;;;;;;;11.32;59.81;95518.55;1727638;82;21122;-81
2021/05/07 06:46:17;;;;;;;1.40;0.72;;;;;;;12.01;58.02;95527.16;1727466;82;21111;-81
2021/05/07 06:48:44;;;;;;;2.25;1.35;;;;;;;12.25;56.28;95512.84;1727638;82;21126;-81
2021/05/07 06:51:12;;;;;;;1.50;0.80;;;;;;;12.29;56.90;95523.61;1727316;82;21498;-82
2021/05/07 06:53:42;;;;;;;0.75;0.60;;;;;;;14.09;54.03;95521.73;1727530;82;21153;-82
2021/05/07 06:56:10;;;;;;;2.30;0.90;;;;;;;15.97;48.63;95527.83;1727368;82;21143;-82
2021/05/07 06:58:38;;;;;;;0.60;0.55;;;;;;;17.55;46.91;95522.69;1727423;82;21088;-82
2021/05/07 07:01:05;;;;;;;0.78;0.60;;;;;;;18.71;42.55;95520.08;1727443;82;21154;-82
2021/05/07 07:03:32;;;;;;;1.27;0.68;;;;;;;19.55;42.37;95513.22;1727378;82;21128;-82
2021/05/07 07:05:59;;;;;;;1.57;1.00;;;;;;;20.08;38.48;95510.47;1727518;82;21118;-82
2021/05/07 07:08:27;;;;;;;1.20;0.72;;;;;;;20.06;40.40;95503.91;1727405;82;21119;-82
2021/05/07 07:10:54;;;;;;;0.60;0.50;;;;;;;21.24;38.30;95522.06;1727443;82;21482;-82
2021/05/07 07:13:21;;;;;;;0.70;0.70;;;;;;;21.60;35.77;95500.98;1727343;82;21091;-82
2021/05/07 07:15:48;;;;;;;0.90;0.65;;;;;;;19.50;37.80;95501.98;1736631;82;21118;-82
2021/05/07 07:18:24;;;;;;;1.12;0.57;;;;;;;17.68;41.42;95509.95;1738933;82;21227;-82
2021/05/07 07:20:51;;;;;;;0.80;0.57;;;;;;;18.45;41.70;95509.24;1727342;82;21154;-82
2021/05/07 07:23:18;;;;;;;1.20;0.90;;;;;;;17.44;41.62;95495.64;1727419;82;21134;-83
2021/05/07 07:25:45;;;;;;;1.02;0.70;;;;;;;17.31;43.41;95504.91;1727285;82;21143;-82
2021/05/07 07:28:17;;;;;;;1.62;0.55;;;;;;;17.31;43.66;95519.64;1727339;82;21470;-82
2021/05/07 07:30:41;;;;;;;2.10;0.95;;;;;;;16.98;43.87;95502.61;1726884;82;21496;-82
2021/05/07 07:33:09;;;;;;;1.00;0.68;;;;;;;15.91;45.63;95500.36;1727385;82;21503;-82
2021/05/07 07:35:36;;;;;;;1.47;0.70;;;;;;;15.22;47.05;95524.80;1727297;82;21134;-82
2021/05/07 07:38:04;;;;;;;2.02;0.90;;;;;;;15.50;47.93;95522.78;1727406;82;21470;-82
2021/05/07 07:40:32;;;;;;;0.93;0.82;;;;;;;15.43;47.64;95518.77;1727388;82;21125;-82
2021/05/07 07:42:59;;;;;;;1.42;1.10;;;;;;;15.27;48.40;95533.91;1727401;82;21548;-82
2021/05/07 07:45:26;;;;;;;2.55;1.05;;;;;;;16.31;47.65;95545.76;1727412;82;21569;-82
2021/05/07 07:47:53;;;;;;;0.80;0.80;;;;;;;16.79;45.66;95546.69;1727467;82;21111;-82
2021/05/07 07:50:20;;;;;;;1.75;1.05;;;;;;;16.94;45.75;95537.89;1727348;82;21454;-82
2021/05/07 07:52:47;;;;;;;2.50;1.17;;;;;;;17.24;45.69;95546.84;1727347;82;21142;-82
2021/05/07 07:55:15;;;;;;;1.52;0.80;;;;;;;18.25;44.32;95550.82;1727540;82;21120;-82
2021/05/07 07:57:42;;;;;;;1.95;1.00;;;;;;;17.36;44.42;95552.11;1727474;82;21142;-82
2021/05/07 08:00:11;;;;;;;1.67;1.10;;;;;;;17.63;44.56;95553.89;1727341;82;21084;-82
2021/05/07 08:02:38;;;;;;;1.07;0.90;;;;;;;19.23;43.26;95548.22;1727358;82;21135;-82
2021/05/07 08:05:07;;;;;;;0.88;0.80;;;;;;;18.87;39.87;95538.23;1727315;82;21150;-82
2021/05/07 08:07:35;;;;;;;0.78;0.70;;;;;;;17.91;42.33;95569.08;1727308;82;21099;-82
2021/05/07 08:10:03;;;;;;;1.50;1.02;;;;;;;17.62;43.14;95554.24;1727507;82;21161;-82
2021/05/07 08:12:30;;;;;;;1.37;0.95;;;;;;;17.21;41.97;95545.07;1727299;82;21175;-82
2021/05/07 08:14:58;;;;;;;1.45;1.10;;;;;;;16.39;44.52;95556.11;1727434;82;21135;-82
2021/05/07 08:17:25;;;;;;;3.45;0.88;;;;;;;15.76;45.74;95531.77;1727287;82;21118;-82
2021/05/07 08:19:52;;;;;;;1.20;0.68;;;;;;;15.84;46.78;95533.55;1727331;82;21497;-82
2021/05/07 08:22:19;;;;;;;1.77;0.80;;;;;;;15.02;47.51;95530.45;1727336;82;21130;-82
2021/05/07 08:24:47;;;;;;;1.17;0.88;;;;;;;14.11;50.40;95519.52;1727375;82;21494;-82
2021/05/07 08:27:14;;;;;;;0.85;0.62;;;;;;;13.60;51.72;95555.53;1733073;81;21243;-82
2021/05/07 08:29:41;;;;;;;1.55;0.60;;;;;;;13.37;52.81;95555.58;1734157;81;21624;-82
2021/05/07 08:32:08;;;;;;;0.95;0.70;;;;;;;13.35;52.95;95552.45;1734034;81;21509;-82
2021/05/07 08:34:35;;;;;;;0.85;0.50;;;;;;;13.11;54.20;95558.35;1734197;81;21260;-82
2021/05/07 08:37:02;;;;;;;0.93;0.68;;;;;;;13.87;52.96;95588.12;1734092;81;21624;-82
2021/05/07 08:39:29;;;;;;;1.15;0.70;;;;;;;14.49;51.58;95539.33;1739993;81;21129;-82
2021/05/07 08:41:57;;;;;;;1.72;0.95;;;;;;;14.30;51.59;95583.02;1734217;81;21110;-82
2021/05/07 08:44:24;;;;;;;0.75;0.47;;;;;;;14.42;50.39;95571.08;1734153;81;21269;-82
2021/05/07 08:46:51;;;;;;;1.12;0.55;;;;;;;14.00;52.34;95580.42;1734037;81;21644;-81
2021/05/07 08:49:19;;;;;;;1.30;0.70;;;;;;;13.64;52.34;95578.30;1734281;81;21149;-82
2021/05/07 08:51:46;;;;;;;0.72;0.57;;;;;;;13.33;53.58;95578.07;1734008;81;21470;-82
2021/05/07 08:54:14;;;;;;;1.62;1.00;;;;;;;13.19;53.23;95578.84;1734230;81;21265;-81
2021/05/07 08:56:42;;;;;;;1.35;0.90;;;;;;;13.11;53.71;95580.19;1734030;81;21118;-82
2021/05/07 08:59:09;;;;;;;1.80;0.80;;;;;;;13.19;54.34;95586.04;1734101;81;21107;-82
2021/05/07 09:01:47;;;;;;;0.95;0.60;;;;;;;13.42;54.29;95590.02;1733927;81;21144;-82
2021/05/07 09:04:20;;;;;;;1.00;0.70;;;;;;;14.13;53.41;95592.72;1734213;81;21087;-82
2021/05/07 09:06:50;;;;;;;1.55;0.80;;;;;;;16.81;50.87;95584.03;1733974;81;21237;-82
2021/05/07 09:09:31;;;;;;;1.55;0.90;;;;;;;18.55;43.98;95586.48;1734202;81;21106;-82
2021/05/07 09:12:02;;;;;;;0.85;0.60;;;;;;;19.52;44.98;95602.63;1734149;81;21189;-82
2021/05/07 09:14:31;;;;;;;0.82;0.62;;;;;;;19.12;41.58;95586.22;1734200;81;21241;-82
2021/05/07 09:17:02;;;;;;;2.17;0.90;;;;;;;17.47;43.89;95606.73;1733932;81;21264;-82
2021/05/07 09:19:34;;;;;;;1.40;0.70;;;;;;;16.04;45.79;95614.91;1734452;81;21264;-82
2021/05/07 09:22:02;;;;;;;1.30;0.88;;;;;;;15.29;47.11;95613.69;1755314;81;21142;-82
2021/05/07 09:24:36;;;;;;;1.45;0.90;;;;;;;14.88;48.14;95619.37;1734093;81;21114;-82
2021/05/07 09:27:06;;;;;;;1.17;0.90;;;;;;;14.45;48.99;95618.44;1733905;81;21509;-82
2021/05/07 09:29:35;;;;;;;2.00;0.80;;;;;;;13.89;49.99;95620.54;1734107;81;21113;-82
2021/05/07 09:32:04;;;;;;;1.62;0.72;;;;;;;13.57;51.13;95614.77;1734160;81;21697;-81
2021/05/07 09:34:38;;;;;;;1.27;1.00;;;;;;;13.25;52.13;95610.06;1734145;81;21485;-82
2021/05/07 09:37:19;;;;;;;3.40;1.00;;;;;;;13.13;52.24;95602.72;1734090;81;21126;-81
2021/05/07 09:39:46;;;;;;;2.08;0.82;;;;;;;13.39;52.85;95605.86;1734251;81;21087;-81
2021/05/07 09:42:24;;;;;;;1.32;0.90;;;;;;;13.24;52.47;95601.85;1715847;83;21502;-81
2021/05/07 09:44:51;;;;;;;1.30;1.00;;;;;;;13.12;54.06;95633.64;1680285;84;21123;-82
2021/05/07 09:47:19;;;;;;;1.47;1.15;;;;;;;13.53;55.17;95638.38;1672093;84;21522;-82
2021/05/07 09:49:46;;;;;;;1.10;0.80;;;;;;;13.85;54.86;95644.94;1676663;84;21152;-81
2021/05/07 09:52:13;;;;;;;1.32;0.70;;;;;;;13.89;54.34;95648.52;1658592;85;21193;-81
2021/05/07 09:54:50;;;;;;;1.12;0.62;;;;;;;13.58;53.46;95640.84;1676733;84;21115;-82
2021/05/07 09:57:20;;;;;;;2.00;0.90;;;;;;;13.48;54.79;95650.52;1676748;84;21122;-82
2021/05/07 09:59:48;;;;;;;1.05;0.72;;;;;;;13.69;54.63;95651.92;1676808;84;21207;-82
2021/05/07 10:02:16;;;;;;;0.78;0.72;;;;;;;13.58;53.39;95642.18;1656162;84;21171;-82
2021/05/07 10:04:47;;;;;;;1.55;1.05;;;;;;;13.26;54.40;95649.67;1686701;84;21130;-81
2021/05/07 10:07:14;;;;;;;2.67;1.22;;;;;;;12.88;56.30;95661.54;1676773;84;21142;-82
2021/05/07 10:09:41;;;;;;;1.45;0.85;;;;;;;12.85;57.18;95652.86;1676708;84;21187;-82
2021/05/07 10:12:11;;;;;;;1.20;1.10;;;;;;;12.99;56.97;95646.03;1676667;84;21161;-81
2021/05/07 10:14:47;;;;;;;1.40;1.00;;;;;;;13.15;56.72;95638.32;1676948;84;21489;-82
2021/05/07 10:17:14;;;;;;;2.92;1.00;;;;;;;13.40;56.45;95635.38;1676705;84;21153;-81
2021/05/07 10:19:44;;;;;;;2.50;1.30;;;;;;;13.66;56.61;95636.05;1676704;84;21159;-82
2021/05/07 10:22:12;;;;;;;3.05;1.22;;;;;;;14.02;54.98;95631.52;1701714;83;21203;-82
2021/05/07 10:24:41;;;;;;;1.45;1.00;;;;;;;14.12;53.97;95612.48;1676739;84;21503;-82
2021/05/07 10:27:22;;;;;;;1.30;1.20;;;;;;;14.50;54.28;95622.27;1673820;84;21548;-82
2021/05/07 10:29:59;;;;;;;0.75;0.65;;;;;;;14.81;53.64;95611.14;1715347;82;21108;-82
2021/05/07 10:32:38;;;;;;;2.25;0.90;;;;;;;15.11;51.62;95614.44;1693179;83;21113;-82
2021/05/07 10:35:07;;;;;;;1.82;0.90;;;;;;;15.04;51.48;95614.19;1693313;83;21152;-82
2021/05/07 10:37:46;;;;;;;1.05;0.82;;;;;;;15.08;49.93;95603.09;1727427;82;21122;-82
2021/05/07 10:40:23;;;;;;;1.02;0.70;;;;;;;15.10;49.98;95624.34;1727419;82;21599;-82
2021/05/07 10:42:58;;;;;;;1.17;0.85;;;;;;;15.32;49.77;95611.12;1727346;82;21515;-82
2021/05/07 10:45:48;;;;;;;1.27;0.70;;;;;;;15.58;49.46;95600.67;1727650;82;21127;-82
2021/05/07 10:48:23;;;;;;;1.25;0.82;;;;;;;15.75;50.91;95601.80;1727426;82;21499;-82
2021/05/07 10:51:04;;;;;;;2.35;0.62;;;;;;;15.55;47.32;95603.46;1727151;82;21112;-81
2021/05/07 10:53:38;;;;;;;;;;;;;;;15.13;47.68;95603.66;1730010;82;21195;-81
2021/05/07 10:56:21;;;;;;;1.50;0.82;;;;;;;14.79;48.58;95614.14;1727603;82;20126;-81
2021/05/07 10:58:52;;;;;;;2.50;0.78;;;;;;;14.51;50.62;95621.16;1727382;82;21140;-81
2021/05/07 11:01:27;;;;;;;0.88;0.70;;;;;;;14.45;50.89;95621.11;1727861;82;21201;-82
2021/05/07 11:04:12;;;;;;;0.90;0.50;;;;;;;14.45;50.51;95638.44;1727471;82;21133;-82
2021/05/07 11:06:45;;;;;;;0.88;0.60;;;;;;;14.22;48.22;95633.42;1727355;82;21135;-82
2021/05/07 11:09:20;;;;;;;1.12;0.50;;;;;;;13.94;48.10;95647.02;1727413;82;21123;-81
2021/05/07 11:11:51;;;;;;;1.22;0.65;;;;;;;14.09;48.29;95644.34;1727468;82;21459;-81
2021/05/07 11:14:25;;;;;;;0.42;0.30;;;;;;;14.46;48.10;95642.67;1726827;82;21131;-81
2021/05/07 11:16:53;;;;;;;0.30;0.30;;;;;;;14.39;46.96;95623.17;1727364;82;21122;-81
2021/05/07 11:19:29;;;;;;;1.27;0.50;;;;;;;14.29;47.37;95611.56;1727517;82;21470;-81
2021/05/07 11:22:06;;;;;;;0.98;0.62;;;;;;;14.54;48.31;95597.27;1727362;82;21475;-81
2021/05/07 11:24:43;;;;;;;2.08;0.70;;;;;;;14.60;47.63;95613.84;1727651;82;21087;-81
2021/05/07 11:27:22;;;;;;;0.82;0.60;;;;;;;14.60;47.10;95601.83;1730489;81;21103;-81
2021/05/07 11:30:04;;;;;;;1.10;0.42;;;;;;;14.54;47.13;95601.83;1669426;85;21491;-81
2021/05/07 11:32:33;;;;;;;1.40;0.50;;;;;;;14.55;46.67;95625.50;1667024;85;21152;-81
2021/05/07 11:35:11;;;;;;;1.50;0.98;;;;;;;14.50;47.73;95619.04;1676550;84;21210;-81
2021/05/07 11:37:42;;;;;;;1.40;0.75;;;;;;;14.64;47.61;95617.43;1676358;84;21132;-81
2021/05/07 11:40:16;;;;;;;0.82;0.47;;;;;;;14.71;47.85;95602.21;1667418;85;21496;-81
2021/05/07 11:42:48;;;;;;;1.12;0.82;;;;;;;14.67;47.37;95598.09;1676296;84;21136;-81
2021/05/07 11:45:22;;;;;;;1.00;0.72;;;;;;;14.60;47.83;95603.17;1676439;84;21103;-81